Verifier — MLWN4 — position and weather

sailwx.info

Track history (hours):
 
Tides and Currents Weather Stations Pressure Air Temp Water Temp Dewpoint Dewpoint Depression Visibility Wind Speed Wind Dir Waves Ship Positions

Verifier

Last reported at 2015-Jun-29 15:33 UTC. Time now 2015-Jul-04 03:16 UTC.
Position N 51°30' E 000°48'.

Length 21 m; draft 5 m.

Type: Port tender. MMSI: 235000932.

Date/timePositionNaut miles runAvg speedWind from/ knotsBaromVisibWave heightAir tempDewpointWater temp
2015-Jun-29 15:33N 51°30' E 000°48'9 9.3
2015-Jun-29 14:33N 51°31' E 001°03'0 0.2
2015-Jun-29 13:32N 51°31' E 001°03'1 0.9
2015-Jun-29 12:32N 51°32' E 001°04'5 4.5
2015-Jun-29 11:24N 51°31' E 001°12'2 1.9
2015-Jun-29 10:31N 51°30' E 001°15'0 0.3
2015-Jun-29 09:33N 51°30' E 001°15'  
2015-Jun-25 15:32N 51°36' E 001°12'6 5.7
2015-Jun-25 14:33N 51°41' E 001°16'1 0.8
2015-Jun-25 13:33N 51°40' E 001°15'1 1.5
2015-Jun-25 12:33N 51°41' E 001°17'2 1.6
2015-Jun-25 11:33N 51°40' E 001°16'1 0.6
2015-Jun-25 10:34N 51°40' E 001°16'  
Track history (hours):
 
Tides and Currents Weather Stations Pressure Air Temp Water Temp Dewpoint Dewpoint Depression Visibility Wind Speed Wind Dir Waves Ship Positions

Verifier

Last reported at 2015-Jun-29 15:33 UTC. Time now 2015-Jul-04 03:16 UTC.
Position N 51°30' E 000°48'.

Length 21 m; draft 5 m.

Type: Port tender. MMSI: 235000932.

Date/timePositionNaut miles runAvg speedWind from/ knotsBaromVisibWave heightAir tempDewpointWater temp
2015-Jun-29 15:33N 51°30' E 000°48'9 9.3
2015-Jun-29 14:33N 51°31' E 001°03'0 0.2
2015-Jun-29 13:32N 51°31' E 001°03'1 0.9
2015-Jun-29 12:32N 51°32' E 001°04'5 4.5
2015-Jun-29 11:24N 51°31' E 001°12'2 1.9
2015-Jun-29 10:31N 51°30' E 001°15'0 0.3
2015-Jun-29 09:33N 51°30' E 001°15'  
2015-Jun-25 15:32N 51°36' E 001°12'6 5.7
2015-Jun-25 14:33N 51°41' E 001°16'1 0.8
2015-Jun-25 13:33N 51°40' E 001°15'1 1.5
2015-Jun-25 12:33N 51°41' E 001°17'2 1.6
2015-Jun-25 11:33N 51°40' E 001°16'1 0.6
2015-Jun-25 10:34N 51°40' E 001°16'  

Dump ship's entire track history